Chapman, Kansas
Current Conditions -  °F | °C
As of 10:58 PM on Saturday 25 Oct 2014 (Local Time) from KFRI Reporting Station
Clear Clear  
Wind Chill: 64°   Ceiling: Unl
Heat Index: 64°   Visibility: 10mi
Dew Point: 63°   Wind: 5mph
Humidity: 98%   Direction: 30°NNE
Pressure: 29.95"   Gusts: NA
Location:  38.97°N, 97.02°W
Report Text: KFRI 260358Z AUTO 03004KT 10SM CLR 18/17 A2995 RMK AO2 SLP136 T01750172
Loading
Personal Weather Stations






























Interactive Weather Map
Tropical Storm Tracking
New forecast layout! Learn more

10-Day Weather Forecast

Advertisements
Track Severe Weather on mobile